Time;durP1;ratioP1;P1;durP2;ratioP2;P2;SDS_P1;SDS_P2;PMS_P1;PMS_P2;Temp;Humidity;BMP_temperature;BMP_pressure;BME280_temperature;BME280_humidity;BME280_pressure;Samples;Min_cycle;Max_cycle;Signal;HPM_P1;HPM_P2
2022/04/28 00:01:57;;;;;;;5.85;4.00;;;12.80;64.70;;;;;;5094072;28;20350;-70
2022/04/28 00:04:22;;;;;;;5.18;3.33;;;12.80;64.70;;;;;;5080984;28;20032;-69
2022/04/28 00:06:48;;;;;;;4.15;3.35;;;12.70;64.70;;;;;;5074940;28;20551;-69
2022/04/28 00:09:14;;;;;;;4.22;3.58;;;12.60;64.60;;;;;;5090842;28;20028;-70
2022/04/28 00:11:40;;;;;;;4.35;3.40;;;12.60;64.50;;;;;;5095132;28;20096;-70
2022/04/28 00:14:07;;;;;;;3.90;3.05;;;12.50;64.50;;;;;;5095090;28;20021;-69
2022/04/28 00:16:35;;;;;;;4.85;3.88;;;12.40;64.50;;;;;;5095070;28;20017;-69
2022/04/28 00:19:02;;;;;;;4.20;2.97;;;12.30;64.60;;;;;;5094986;28;20032;-69
2022/04/28 00:21:27;;;;;;;4.85;3.58;;;12.30;64.70;;;;;;5094938;28;20019;-69
2022/04/28 00:23:53;;;;;;;4.28;3.42;;;12.20;64.70;;;;;;5084221;28;20027;-69
2022/04/28 00:26:20;;;;;;;5.80;3.83;;;12.20;64.90;;;;;;5073251;28;20036;-70
2022/04/28 00:28:46;;;;;;;4.30;3.55;;;12.10;65.00;;;;;;5074632;28;20123;-69
2022/04/28 00:31:12;;;;;;;4.25;3.47;;;12.10;65.10;;;;;;5074477;28;20024;-69
2022/04/28 00:33:40;;;;;;;10.38;3.65;;;12.00;65.10;;;;;;5074411;28;20025;-69
2022/04/28 00:36:06;;;;;;;7.18;4.30;;;12.00;65.30;;;;;;5074366;28;20028;-70
2022/04/28 00:38:32;;;;;;;4.70;3.17;;;12.00;65.50;;;;;;5074335;28;20062;-70
2022/04/28 00:40:58;;;;;;;4.50;3.30;;;11.90;65.40;;;;;;5073065;28;20071;-69
2022/04/28 00:43:28;;;;;;;4.60;2.90;;;11.90;65.50;;;;;;5072976;28;20115;-69
2022/04/28 00:45:55;;;;;;;5.03;3.95;;;11.80;65.60;;;;;;5074144;28;20074;-70
2022/04/28 00:51:05;;;;;;;;;;;11.80;65.80;;;;;;5074785;28;20139;-69
2022/04/28 00:53:35;;;;;;;3.28;2.97;;;11.80;65.60;;;;;;5074102;28;19955;-69
2022/04/28 00:56:01;;;;;;;7.63;3.47;;;11.80;65.60;;;;;;5073972;28;20028;-69
2022/04/28 00:58:27;;;;;;;3.72;3.10;;;11.80;66.60;;;;;;5073850;28;20024;-69
2022/04/28 01:00:54;;;;;;;3.42;2.90;;;11.80;65.90;;;;;;5073898;28;20042;-69
2022/04/28 01:03:20;;;;;;;5.75;3.55;;;11.70;66.00;;;;;;5073679;28;20050;-69
2022/04/28 01:05:46;;;;;;;3.50;3.00;;;11.70;66.10;;;;;;5073548;28;20554;-70
2022/04/28 01:08:12;;;;;;;6.30;3.30;;;11.70;66.10;;;;;;5073615;28;20095;-69
2022/04/28 01:10:38;;;;;;;9.57;3.50;;;11.70;66.20;;;;;;5073536;28;20020;-69
2022/04/28 01:13:04;;;;;;;4.95;3.50;;;11.70;66.30;;;;;;5073534;28;20485;-69
2022/04/28 01:15:40;;;;;;;5.18;3.95;;;11.70;66.40;;;;;;5073256;28;20103;-69
2022/04/28 01:18:06;;;;;;;7.70;3.65;;;11.70;66.60;;;;;;5073096;28;20116;-70
2022/04/28 01:20:32;;;;;;;12.15;4.63;;;11.70;66.80;;;;;;5073361;28;20534;-69
2022/04/28 01:22:58;;;;;;;5.57;3.72;;;11.70;66.90;;;;;;5073381;28;20367;-70
2022/04/28 01:25:23;;;;;;;6.82;4.20;;;11.70;66.90;;;;;;5073180;28;20099;-69
2022/04/28 01:27:50;;;;;;;6.05;4.45;;;11.70;66.90;;;;;;5073219;28;20028;-69
2022/04/28 01:30:16;;;;;;;4.68;3.90;;;11.70;66.90;;;;;;5075362;28;20545;-69
2022/04/28 01:32:42;;;;;;;6.20;3.95;;;11.70;66.80;;;;;;5074664;28;20214;-70
2022/04/28 01:35:08;;;;;;;3.80;3.22;;;11.70;66.70;;;;;;5071861;28;20401;-69
2022/04/28 01:37:34;;;;;;;6.05;4.18;;;11.70;66.60;;;;;;5082078;28;20551;-69
2022/04/28 01:40:00;;;;;;;3.90;3.33;;;11.70;66.60;;;;;;5093399;28;20496;-69
2022/04/28 01:42:26;;;;;;;4.45;3.35;;;11.70;66.50;;;;;;5093300;28;20028;-69
2022/04/28 01:44:52;;;;;;;6.18;4.47;;;11.60;66.50;;;;;;5093200;28;20118;-70
2022/04/28 01:47:18;;;;;;;5.97;4.72;;;11.60;66.80;;;;;;5091956;28;20023;-70
2022/04/28 01:49:44;;;;;;;5.38;4.15;;;11.60;67.10;;;;;;5074167;28;20020;-69
2022/04/28 01:54:58;;;;;;;6.05;4.07;;;11.50;67.20;;;;;;5083888;28;20063;-70
2022/04/28 01:57:31;;;;;;;5.05;3.38;;;11.50;67.00;;;;;;5093116;28;20115;-69
2022/04/28 02:00:01;;;;;;;6.78;4.03;;;11.50;66.80;;;;;;5091691;28;20040;-69
2022/04/28 02:02:27;;;;;;;6.57;4.35;;;11.40;66.50;;;;;;5093012;28;20024;-70
2022/04/28 02:04:58;;;;;;;6.25;4.63;;;11.40;66.40;;;;;;5092951;28;20028;-69
2022/04/28 02:07:25;;;;;;;4.65;3.92;;;11.30;66.40;;;;;;5093053;28;20064;-70
2022/04/28 02:09:51;;;;;;;6.80;4.38;;;11.30;66.40;;;;;;5091643;28;20028;-69
2022/04/28 02:12:17;;;;;;;5.38;4.10;;;11.20;66.30;;;;;;5092922;28;20020;-69
2022/04/28 02:14:42;;;;;;;5.50;4.75;;;11.20;66.40;;;;;;5092963;28;20028;-69
2022/04/28 02:17:08;;;;;;;5.25;4.20;;;11.10;66.40;;;;;;5079664;28;20059;-69
2022/04/28 02:19:37;;;;;;;5.55;4.18;;;11.10;66.50;;;;;;5072753;28;20134;-70
2022/04/28 02:22:03;;;;;;;6.72;5.05;;;11.00;66.50;;;;;;5072700;28;20099;-69
2022/04/28 02:24:29;;;;;;;7.43;5.00;;;11.00;66.90;;;;;;5071348;28;20029;-70
2022/04/28 02:26:55;;;;;;;5.95;4.18;;;11.00;67.20;;;;;;5072469;28;20020;-69
2022/04/28 02:29:21;;;;;;;4.80;4.28;;;10.90;67.20;;;;;;5076638;28;20043;-69
2022/04/28 02:31:47;;;;;;;8.38;4.43;;;10.90;67.40;;;;;;5093633;28;20489;-70
2022/04/28 02:34:13;;;;;;;5.40;4.03;;;10.90;67.50;;;;;;5096871;28;20024;-70
2022/04/28 02:36:38;;;;;;;6.55;5.13;;;10.90;67.60;;;;;;5096805;28;20026;-69
2022/04/28 02:39:04;;;;;;;5.40;4.20;;;10.90;67.70;;;;;;5095776;28;20020;-69
2022/04/28 02:41:30;;;;;;;4.70;3.95;;;10.90;67.70;;;;;;5096764;28;20073;-70
2022/04/28 02:43:56;;;;;;;4.88;3.80;;;10.80;67.60;;;;;;5096661;28;20016;-69
2022/04/28 02:46:22;;;;;;;11.30;4.90;;;10.80;67.50;;;;;;5096540;28;20055;-69
2022/04/28 02:48:49;;;;;;;6.25;4.72;;;10.80;67.50;;;;;;5096624;28;20020;-69
2022/04/28 02:51:15;;;;;;;5.90;4.25;;;10.80;67.60;;;;;;5096154;28;20017;-69
2022/04/28 02:53:41;;;;;;;6.45;4.85;;;10.80;67.70;;;;;;5093723;28;20027;-69
2022/04/28 02:56:07;;;;;;;6.45;5.35;;;10.70;67.60;;;;;;5094654;28;20028;-69
2022/04/28 02:58:37;;;;;;;5.85;4.75;;;10.70;67.60;;;;;;5094907;28;20028;-70
2022/04/28 03:01:03;;;;;;;6.28;4.95;;;10.70;67.70;;;;;;5096678;28;20028;-70
2022/04/28 03:03:30;;;;;;;8.40;6.07;;;10.70;68.60;;;;;;5096301;28;20020;-69
2022/04/28 03:11:24;;;;;;;;;;;10.70;68.10;;;;;;5096692;28;20390;-70
2022/04/28 03:13:50;;;;;;;6.32;5.18;;;10.70;67.90;;;;;;5096112;28;19905;-70
2022/04/28 03:16:17;;;;;;;7.13;5.28;;;10.70;67.70;;;;;;5096057;28;20389;-70
2022/04/28 03:18:44;;;;;;;6.85;5.45;;;10.60;67.70;;;;;;5096008;28;20107;-70
2022/04/28 03:21:11;;;;;;;9.00;7.03;;;10.60;67.70;;;;;;5082666;28;20032;-70
2022/04/28 03:23:37;;;;;;;10.00;5.28;;;10.60;67.90;;;;;;5075630;28;20028;-71
2022/04/28 03:26:04;;;;;;;15.80;6.40;;;10.60;68.10;;;;;;5075480;28;20114;-69
2022/04/28 03:28:34;;;;;;;43.28;9.07;;;10.50;68.40;;;;;;5075618;28;20090;-70
2022/04/28 03:31:01;;;;;;;60.72;8.05;;;10.50;68.90;;;;;;5076084;28;20013;-69
2022/04/28 03:33:27;;;;;;;30.60;8.32;;;10.50;69.40;;;;;;5075756;28;20017;-69
2022/04/28 03:35:53;;;;;;;74.13;8.70;;;10.50;69.70;;;;;;5075763;28;20501;-69
2022/04/28 03:38:19;;;;;;;23.70;8.60;;;10.50;70.00;;;;;;5075647;28;20029;-69
2022/04/28 03:40:45;;;;;;;22.38;7.95;;;10.60;70.10;;;;;;5073479;28;20086;-69
2022/04/28 03:43:12;;;;;;;79.40;10.13;;;10.60;70.20;;;;;;5075495;28;20033;-70
2022/04/28 03:45:38;;;;;;;22.92;8.43;;;10.60;70.20;;;;;;5073968;28;20113;-70
2022/04/28 03:48:08;;;;;;;11.13;7.55;;;10.60;70.20;;;;;;5075870;28;20021;-69
2022/04/28 03:50:34;;;;;;;16.10;7.78;;;10.60;70.30;;;;;;5094087;28;20055;-69
2022/04/28 03:53:00;;;;;;;9.65;7.25;;;10.70;70.30;;;;;;5095319;28;20051;-71
2022/04/28 03:55:26;;;;;;;12.25;7.65;;;10.70;70.10;;;;;;5094035;28;20082;-69
2022/04/28 03:57:52;;;;;;;7.55;6.10;;;10.70;70.00;;;;;;5095245;28;20060;-69
2022/04/28 04:00:19;;;;;;;9.38;6.50;;;10.70;69.90;;;;;;5095003;28;20048;-70
2022/04/28 04:02:45;;;;;;;30.02;6.78;;;10.70;70.70;;;;;;5093940;28;20031;-70
2022/04/28 04:05:11;;;;;;;7.95;6.13;;;10.80;70.00;;;;;;5094932;28;20039;-69
2022/04/28 04:07:38;;;;;;;6.55;5.28;;;10.80;69.90;;;;;;5095118;28;20067;-70
2022/04/28 04:10:07;;;;;;;8.85;6.50;;;10.80;70.00;;;;;;5094956;28;20427;-70
2022/04/28 04:12:33;;;;;;;6.97;5.90;;;10.80;70.10;;;;;;5094955;28;20457;-70
2022/04/28 04:14:59;;;;;;;15.00;7.00;;;10.90;70.10;;;;;;5094890;28;20057;-69
2022/04/28 04:17:25;;;;;;;11.45;7.25;;;10.90;70.10;;;;;;5093057;28;20032;-70
2022/04/28 04:19:51;;;;;;;7.90;6.32;;;11.00;70.10;;;;;;5093528;28;20024;-70
2022/04/28 04:22:17;;;;;;;11.98;7.00;;;11.00;70.10;;;;;;5094720;28;20024;-70
2022/04/28 04:24:43;;;;;;;9.32;6.32;;;11.10;70.10;;;;;;5078055;28;20407;-70
2022/04/28 04:27:09;;;;;;;8.48;6.65;;;11.10;70.00;;;;;;5074431;28;20040;-70
2022/04/28 04:29:36;;;;;;;12.88;7.68;;;11.10;70.00;;;;;;5074344;28;20092;-70
2022/04/28 04:32:18;;;;;;;16.23;6.68;;;11.20;69.90;;;;;;5074300;28;20028;-69
2022/04/28 04:34:47;;;;;;;7.45;6.43;;;11.20;69.80;;;;;;5073038;28;20085;-70
2022/04/28 04:37:14;;;;;;;9.80;6.70;;;11.30;69.80;;;;;;5074235;28;20020;-70
2022/04/28 04:39:40;;;;;;;10.68;6.22;;;11.30;69.70;;;;;;5074144;28;20142;-69
2022/04/28 04:42:07;;;;;;;7.28;5.80;;;11.40;69.70;;;;;;5074149;28;20031;-70
2022/04/28 04:44:34;;;;;;;7.80;6.47;;;11.40;69.80;;;;;;5073852;28;20017;-70
2022/04/28 04:47:00;;;;;;;8.32;6.72;;;11.50;69.80;;;;;;5074001;28;20109;-69
2022/04/28 04:49:27;;;;;;;8.43;6.55;;;11.60;69.60;;;;;;5074004;28;20028;-69
2022/04/28 04:51:52;;;;;;;8.32;6.13;;;11.60;69.60;;;;;;5072819;28;20020;-70
2022/04/28 04:54:20;;;;;;;10.73;6.60;;;11.70;69.60;;;;;;5073931;28;20028;-69
2022/04/28 04:56:46;;;;;;;6.95;6.13;;;11.70;69.50;;;;;;5072859;28;20386;-70
2022/04/28 04:59:11;;;;;;;10.70;7.80;;;11.80;69.40;;;;;;5073511;28;20041;-70
2022/04/28 05:01:37;;;;;;;8.52;6.80;;;11.90;69.10;;;;;;5073845;28;20016;-70
2022/04/28 05:04:03;;;;;;;8.73;6.32;;;11.90;69.70;;;;;;5073998;28;20017;-70
2022/04/28 05:06:29;;;;;;;9.88;6.88;;;12.00;69.00;;;;;;5091355;28;20032;-70
2022/04/28 05:08:55;;;;;;;8.68;6.70;;;12.10;68.90;;;;;;5093868;28;20016;-70
2022/04/28 05:11:21;;;;;;;10.15;7.05;;;12.10;68.50;;;;;;5090427;28;20016;-70
2022/04/28 05:13:47;;;;;;;9.27;6.50;;;12.20;68.40;;;;;;5073473;28;20089;-70
2022/04/28 05:16:13;;;;;;;11.93;8.63;;;12.30;68.30;;;;;;5079898;28;20425;-70
2022/04/28 05:18:39;;;;;;;9.82;6.78;;;12.30;67.80;;;;;;5093460;28;20028;-69
2022/04/28 05:21:04;;;;;;;12.82;7.03;;;12.40;67.80;;;;;;5093606;28;20099;-70
2022/04/28 05:23:30;;;;;;;11.93;8.20;;;12.50;67.90;;;;;;5075409;28;20103;-70
2022/04/28 05:25:56;;;;;;;9.95;7.68;;;12.50;67.40;;;;;;5082161;28;20473;-70
2022/04/28 05:28:26;;;;;;;9.90;7.43;;;12.60;66.90;;;;;;5093194;28;20032;-70
2022/04/28 05:30:55;;;;;;;9.68;7.32;;;12.60;66.40;;;;;;5093453;28;20028;-70
2022/04/28 05:33:21;;;;;;;10.95;7.18;;;12.60;66.30;;;;;;5093212;28;20024;-70
2022/04/28 05:35:47;;;;;;;9.63;7.38;;;12.70;66.40;;;;;;5093116;28;20028;-71
2022/04/28 05:38:13;;;;;;;9.20;7.28;;;12.70;66.10;;;;;;5092857;28;20032;-70
2022/04/28 05:40:40;;;;;;;12.55;6.88;;;12.70;66.20;;;;;;5091659;28;20546;-70
2022/04/28 05:45:51;;;;;;;8.27;6.22;;;12.80;65.90;;;;;;5092700;28;20127;-69
2022/04/28 05:48:18;;;;;;;9.77;6.75;;;12.80;65.80;;;;;;5092785;28;20020;-71
2022/04/28 05:50:45;;;;;;;8.30;7.00;;;12.80;65.80;;;;;;5083992;28;20033;-70
2022/04/28 05:53:11;;;;;;;10.40;7.25;;;12.80;65.80;;;;;;5072574;28;20020;-70
2022/04/28 05:55:38;;;;;;;12.27;7.00;;;12.90;66.10;;;;;;5075029;28;20382;-69
2022/04/28 05:58:04;;;;;;;9.23;6.35;;;12.90;66.00;;;;;;5092705;28;20103;-69
2022/04/28 06:00:31;;;;;;;8.00;6.55;;;13.00;65.90;;;;;;5091157;28;20101;-70
2022/04/28 06:02:58;;;;;;;10.10;6.13;;;13.00;65.70;;;;;;5091442;28;20385;-70
2022/04/28 06:05:24;;;;;;;9.50;6.32;;;13.10;65.60;;;;;;5092493;28;20031;-70
2022/04/28 06:07:51;;;;;;;8.23;6.45;;;13.10;65.40;;;;;;5091647;28;20052;-70
2022/04/28 06:10:17;;;;;;;8.23;6.20;;;13.20;65.10;;;;;;5091956;28;20028;-71
2022/04/28 06:12:43;;;;;;;9.45;6.70;;;13.20;65.00;;;;;;5093048;28;20020;-71
2022/04/28 06:15:09;;;;;;;8.40;6.30;;;13.30;65.10;;;;;;5081848;28;20051;-70
2022/04/28 06:17:35;;;;;;;8.23;6.50;;;13.40;65.00;;;;;;5072870;28;20029;-70
2022/04/28 06:20:01;;;;;;;8.93;7.30;;;13.50;65.10;;;;;;5076693;28;20028;-70
2022/04/28 06:22:27;;;;;;;8.07;6.93;;;13.50;65.10;;;;;;5084406;28;20020;-71
2022/04/28 06:24:54;;;;;;;8.35;6.60;;;13.60;65.00;;;;;;5092781;28;20035;-70
2022/04/28 06:27:20;;;;;;;9.60;6.18;;;13.70;64.70;;;;;;5092866;28;20024;-70
2022/04/28 06:29:48;;;;;;;11.48;6.70;;;13.80;64.70;;;;;;5091576;28;20465;-70
2022/04/28 06:32:17;;;;;;;8.30;6.65;;;13.90;64.40;;;;;;5092891;28;20017;-70
2022/04/28 06:34:46;;;;;;;14.32;7.10;;;14.00;63.90;;;;;;5093190;28;20029;-70
2022/04/28 06:37:14;;;;;;;14.85;6.95;;;14.00;63.60;;;;;;5092850;28;20039;-70
2022/04/28 06:39:43;;;;;;;10.02;6.10;;;14.10;63.40;;;;;;5092865;28;20445;-70
2022/04/28 06:42:09;;;;;;;10.50;6.55;;;14.10;62.70;;;;;;5072866;28;20046;-70
2022/04/28 06:44:36;;;;;;;7.45;5.80;;;14.10;62.60;;;;;;5072451;28;20056;-71
2022/04/28 06:47:05;;;;;;;8.13;5.80;;;14.20;62.60;;;;;;5072579;28;20383;-70
2022/04/28 06:49:31;;;;;;;10.52;6.43;;;14.20;62.70;;;;;;5072439;28;20020;-71
2022/04/28 06:51:56;;;;;;;11.65;6.65;;;14.20;62.80;;;;;;5071201;28;20021;-70
2022/04/28 06:54:22;;;;;;;7.72;5.65;;;14.30;62.90;;;;;;5071197;28;20501;-70
2022/04/28 06:56:48;;;;;;;14.05;6.80;;;14.40;63.30;;;;;;5071156;28;20093;-70
2022/04/28 06:59:13;;;;;;;10.57;6.35;;;14.50;63.50;;;;;;5072236;28;20056;-70
2022/04/28 07:01:40;;;;;;;17.08;6.97;;;14.60;63.70;;;;;;5081406;28;20576;-71
2022/04/28 07:04:06;;;;;;;12.13;6.53;;;14.80;63.00;;;;;;5092625;28;20102;-70
2022/04/28 07:06:32;;;;;;;8.77;6.55;;;14.90;62.00;;;;;;5092410;28;20028;-70
2022/04/28 07:08:57;;;;;;;11.52;6.47;;;15.10;61.50;;;;;;5092661;28;20020;-71
2022/04/28 07:11:26;;;;;;;9.27;5.65;;;15.20;61.30;;;;;;5091059;28;20055;-70
2022/04/28 07:13:52;;;;;;;7.63;5.70;;;15.30;61.10;;;;;;5092241;28;20482;-70
2022/04/28 07:16:18;;;;;;;13.70;6.95;;;15.30;61.00;;;;;;5094751;28;20020;-71
2022/04/28 07:18:44;;;;;;;6.55;5.43;;;15.40;60.60;;;;;;5093006;28;20104;-71
2022/04/28 07:21:10;;;;;;;8.43;5.70;;;15.50;60.20;;;;;;5075667;28;20023;-70
2022/04/28 07:23:36;;;;;;;7.07;5.57;;;15.50;59.70;;;;;;5075664;28;20024;-71
2022/04/28 07:26:02;;;;;;;11.73;6.25;;;15.60;59.50;;;;;;5084588;28;20393;-71
2022/04/28 07:28:28;;;;;;;11.85;5.55;;;15.60;59.40;;;;;;5094495;28;20027;-70
2022/04/28 07:30:54;;;;;;;8.57;5.25;;;15.70;59.10;;;;;;5094469;28;20030;-70
2022/04/28 07:33:19;;;;;;;9.32;5.47;;;15.80;59.10;;;;;;5095644;28;20028;-71
2022/04/28 07:35:45;;;;;;;12.43;5.72;;;15.80;58.40;;;;;;5095696;28;20485;-70
2022/04/28 07:38:11;;;;;;;9.50;5.40;;;15.90;57.90;;;;;;5095602;28;20031;-71
2022/04/28 07:40:37;;;;;;;7.38;5.32;;;16.00;57.90;;;;;;5094259;28;20020;-70
2022/04/28 07:43:03;;;;;;;14.00;5.60;;;16.10;57.50;;;;;;5094225;28;20053;-71
2022/04/28 07:45:29;;;;;;;8.55;5.50;;;16.20;56.60;;;;;;5095355;28;20089;-69
2022/04/28 07:47:55;;;;;;;11.38;4.85;;;16.20;56.50;;;;;;5076044;28;20029;-69
2022/04/28 07:50:21;;;;;;;9.15;5.15;;;16.30;56.80;;;;;;5075032;28;20359;-69
2022/04/28 07:52:47;;;;;;;8.13;5.82;;;16.30;56.60;;;;;;5075019;28;20032;-69
2022/04/28 07:55:13;;;;;;;6.57;5.40;;;16.30;56.40;;;;;;5075018;28;20021;-69
2022/04/28 07:57:39;;;;;;;10.02;5.80;;;16.30;56.50;;;;;;5074934;28;20525;-70
2022/04/28 08:00:07;;;;;;;8.55;5.18;;;16.20;56.30;;;;;;5088876;28;20064;-70
2022/04/28 08:02:33;;;;;;;10.23;5.93;;;16.20;56.40;;;;;;5094959;28;20031;-70
2022/04/28 08:04:59;;;;;;;8.75;5.45;;;16.10;56.30;;;;;;5095111;28;20436;-69
2022/04/28 08:07:25;;;;;;;9.70;6.40;;;16.10;56.50;;;;;;5094901;28;20016;-69
2022/04/28 08:09:51;;;;;;;8.07;5.57;;;16.00;56.30;;;;;;5095080;28;20016;-69
2022/04/28 08:12:18;;;;;;;7.65;5.25;;;16.00;56.60;;;;;;5094955;28;20073;-70
2022/04/28 08:14:43;;;;;;;7.07;5.25;;;16.00;57.10;;;;;;5095091;28;20036;-69
2022/04/28 08:17:09;;;;;;;7.28;5.30;;;16.10;57.50;;;;;;5094693;28;20036;-69
2022/04/28 08:19:35;;;;;;;7.78;5.70;;;16.20;56.80;;;;;;5074673;28;20025;-69
2022/04/28 08:22:01;;;;;;;6.70;5.38;;;16.20;56.70;;;;;;5074647;28;20382;-69
2022/04/28 08:24:27;;;;;;;7.43;5.13;;;16.30;56.90;;;;;;5075742;28;20355;-69
2022/04/28 08:26:54;;;;;;;7.78;5.18;;;16.40;57.00;;;;;;5076462;28;20099;-69
2022/04/28 08:29:23;;;;;;;5.95;4.88;;;16.50;55.90;;;;;;5074518;28;20052;-70
2022/04/28 08:31:50;;;;;;;8.60;5.20;;;16.60;56.00;;;;;;5074543;28;20099;-69
2022/04/28 08:34:21;;;;;;;7.15;5.00;;;16.80;56.30;;;;;;5074462;28;20554;-70
2022/04/28 08:36:48;;;;;;;6.53;4.72;;;16.90;56.10;;;;;;5073208;28;20055;-69
2022/04/28 08:39:14;;;;;;;7.60;5.32;;;17.00;55.60;;;;;;5073201;28;20052;-70
2022/04/28 08:41:45;;;;;;;6.75;5.00;;;17.20;55.40;;;;;;5092950;28;20099;-71
2022/04/28 08:44:18;;;;;;;8.10;5.72;;;17.30;55.10;;;;;;5093971;28;20024;-71
2022/04/28 08:46:51;;;;;;;5.05;4.40;;;17.50;54.20;;;;;;5091680;28;20055;-71
2022/04/28 08:49:29;;;;;;;6.57;4.65;;;17.60;54.50;;;;;;5094178;28;20466;-71
2022/04/28 08:51:56;;;;;;;7.03;4.80;;;17.90;53.50;;;;;;5093886;28;20024;-71
2022/04/28 08:54:26;;;;;;;5.47;4.40;;;18.10;53.60;;;;;;5092473;28;20020;-69
2022/04/28 08:56:54;;;;;;;6.65;4.90;;;18.30;53.30;;;;;;5089567;28;20492;-69
2022/04/28 08:59:20;;;;;;;7.13;5.00;;;18.50;51.60;;;;;;5093356;28;20060;-69
2022/04/28 09:01:46;;;;;;;8.50;4.88;;;18.70;52.00;;;;;;5093528;28;20028;-70
2022/04/28 09:04:12;;;;;;;8.00;5.45;;;18.90;49.30;;;;;;5082779;28;20081;-69
2022/04/28 09:06:40;;;;;;;12.73;5.10;;;19.20;48.50;;;;;;5083343;28;20043;-69
2022/04/28 09:09:14;;;;;;;9.90;5.40;;;19.40;48.90;;;;;;5087018;28;20048;-70
2022/04/28 09:11:42;;;;;;;6.85;4.85;;;19.60;48.60;;;;;;5093111;28;20102;-69
2022/04/28 09:14:26;;;;;;;7.32;5.20;;;19.80;48.00;;;;;;5088780;28;20120;-69
2022/04/28 09:16:59;;;;;;;8.63;4.82;;;19.70;47.10;;;;;;5084092;28;20474;-69
2022/04/28 09:19:34;;;;;;;9.52;5.18;;;19.70;46.80;;;;;;5079344;28;20028;-69
2022/04/28 09:22:09;;;;;;;7.88;5.07;;;19.60;46.10;;;;;;5081152;28;20024;-69
2022/04/28 09:24:36;;;;;;;12.32;5.05;;;19.50;45.50;;;;;;5090549;28;20076;-70
2022/04/28 09:27:03;;;;;;;9.20;4.68;;;19.40;45.20;;;;;;5082462;28;20020;-70
2022/04/28 09:29:33;;;;;;;5.88;4.22;;;19.30;45.50;;;;;;5072630;28;20020;-70
2022/04/28 09:31:59;;;;;;;11.82;5.45;;;19.20;46.10;;;;;;5076675;28;20028;-70
2022/04/28 09:34:25;;;;;;;8.35;5.15;;;19.00;45.20;;;;;;5073380;28;20021;-70
2022/04/28 09:36:52;;;;;;;7.13;5.05;;;18.90;45.30;;;;;;5073318;28;20044;-72
2022/04/28 09:44:53;;;;;;;8.73;4.97;;;18.70;45.50;;;;;;5074691;28;20191;-69
2022/04/28 09:47:20;;;;;;;16.58;5.90;;;18.70;45.80;;;;;;5073188;28;20437;-70
2022/04/28 09:49:55;;;;;;;11.88;5.32;;;18.80;46.30;;;;;;5073198;28;20093;-71
2022/04/28 09:52:31;;;;;;;10.20;5.60;;;18.80;45.80;;;;;;5075614;28;20052;-70
2022/04/28 09:54:59;;;;;;;9.55;5.40;;;18.90;46.10;;;;;;5090116;28;20550;-70
2022/04/28 09:57:25;;;;;;;5.85;4.88;;;19.00;46.50;;;;;;5091931;28;20177;-70
2022/04/28 09:59:56;;;;;;;5.55;4.70;;;19.10;46.50;;;;;;5086543;28;20089;-70
2022/04/28 10:02:27;;;;;;;10.23;5.40;;;19.20;46.20;;;;;;5092082;28;20054;-70
2022/04/28 10:04:56;;;;;;;9.40;4.30;;;19.20;45.30;;;;;;5092992;28;20043;-70
2022/04/28 10:07:23;;;;;;;15.60;5.40;;;19.20;45.90;;;;;;5091289;28;20462;-71
2022/04/28 10:09:51;;;;;;;14.88;5.32;;;19.20;45.20;;;;;;5092332;28;20024;-70
2022/04/28 10:12:25;;;;;;;5.93;4.75;;;19.10;45.70;;;;;;5091627;28;20381;-70
2022/04/28 10:14:53;;;;;;;7.35;5.15;;;19.10;46.10;;;;;;5082426;28;20032;-70
2022/04/28 10:17:38;;;;;;;7.40;5.07;;;19.00;46.10;;;;;;5071513;28;20029;-70
2022/04/28 10:20:29;;;;;;;9.48;5.60;;;19.00;46.40;;;;;;5083029;28;20063;-70
2022/04/28 10:22:59;;;;;;;8.07;5.78;;;19.10;46.70;;;;;;5080628;28;20504;-70
2022/04/28 10:33:44;;;;;;;5.53;4.45;;;19.30;47.90;;;;;;5092806;28;19911;-70
2022/04/28 10:36:18;;;;;;;6.32;5.13;;;19.50;46.70;;;;;;5092808;28;20032;-70
2022/04/28 10:39:08;;;;;;;9.15;5.53;;;19.60;46.10;;;;;;5092764;28;20505;-70
2022/04/28 10:41:34;;;;;;;9.55;5.05;;;19.80;46.30;;;;;;5092936;28;20032;-70
2022/04/28 10:44:00;;;;;;;8.35;5.57;;;19.90;46.30;;;;;;5091591;28;20074;-69
2022/04/28 10:46:28;;;;;;;7.38;5.25;;;20.00;46.20;;;;;;5092751;28;20020;-70
2022/04/28 10:48:59;;;;;;;11.48;5.63;;;20.10;45.60;;;;;;5092797;28;20050;-70
2022/04/28 10:51:30;;;;;;;11.27;5.40;;;20.30;45.50;;;;;;5095405;28;20108;-70
2022/04/28 10:54:07;;;;;;;7.30;5.65;;;20.40;45.50;;;;;;5096650;28;20026;-70
2022/04/28 10:56:42;;;;;;;8.82;4.70;;;20.70;43.80;;;;;;5095261;28;20030;-71
2022/04/28 10:59:37;;;;;;;8.15;5.03;;;20.90;43.00;;;;;;5096367;28;20048;-70
2022/04/28 11:02:15;;;;;;;5.63;4.18;;;21.10;41.60;;;;;;5096533;28;20469;-70
2022/04/28 11:05:05;;;;;;;5.32;3.92;;;21.40;40.90;;;;;;5095000;28;20024;-70
2022/04/28 11:07:32;;;;;;;4.40;3.45;;;21.60;39.70;;;;;;5077462;28;20493;-70
2022/04/28 11:09:58;;;;;;;7.80;3.72;;;21.80;39.80;;;;;;5096189;28;20086;-70
2022/04/28 11:12:31;;;;;;;8.85;3.90;;;22.00;37.50;;;;;;5094956;28;20544;-70
2022/04/28 11:15:03;;;;;;;7.20;3.97;;;22.20;37.80;;;;;;5094586;28;20522;-70
2022/04/28 11:17:38;;;;;;;5.25;3.60;;;22.30;37.50;;;;;;5096170;28;20110;-70
2022/04/28 11:20:12;;;;;;;5.57;3.70;;;22.40;36.70;;;;;;5094724;28;20056;-71
2022/04/28 11:22:42;;;;;;;6.38;3.10;;;22.40;37.00;;;;;;5096067;28;20020;-70
2022/04/28 11:25:16;;;;;;;5.45;2.83;;;22.40;34.40;;;;;;5095568;28;20118;-70
2022/04/28 11:27:43;;;;;;;3.72;2.92;;;22.40;34.20;;;;;;5094094;28;20053;-70
2022/04/28 11:30:14;;;;;;;5.50;3.15;;;22.40;34.90;;;;;;5091222;28;20031;-70
2022/04/28 11:32:51;;;;;;;3.60;2.85;;;22.40;34.20;;;;;;5076141;28;20056;-70
2022/04/28 11:35:19;;;;;;;3.83;2.95;;;22.40;33.70;;;;;;5081266;28;20024;-71
2022/04/28 11:37:45;;;;;;;6.30;3.67;;;22.50;33.40;;;;;;5094339;28;20024;-71
2022/04/28 11:40:16;;;;;;;5.28;3.30;;;22.60;33.00;;;;;;5080874;28;20599;-71
2022/04/28 11:42:43;;;;;;;3.53;2.92;;;22.60;33.50;;;;;;5097230;28;20031;-71
2022/04/28 11:45:09;;;;;;;9.15;2.75;;;22.70;33.50;;;;;;5080200;28;20036;-70
2022/04/28 11:47:44;;;;;;;9.68;3.20;;;22.80;33.30;;;;;;5074528;28;20024;-70
2022/04/28 11:50:29;;;;;;;7.05;3.30;;;22.80;32.10;;;;;;5081236;28;20023;-70
2022/04/28 11:53:00;;;;;;;3.83;3.00;;;22.80;33.20;;;;;;5080963;28;20048;-70
2022/04/28 11:55:33;;;;;;;5.53;3.08;;;22.80;31.40;;;;;;5074848;28;20389;-70
2022/04/28 11:57:59;;;;;;;4.45;3.15;;;22.80;31.10;;;;;;5081905;28;20107;-70
2022/04/28 12:00:26;;;;;;;5.30;2.88;;;22.70;31.10;;;;;;5078069;28;20052;-70
2022/04/28 12:02:55;;;;;;;5.45;3.33;;;22.70;31.60;;;;;;5074842;28;20427;-70
2022/04/28 12:05:29;;;;;;;3.83;2.70;;;22.70;32.20;;;;;;5073429;28;20366;-69
2022/04/28 12:07:55;;;;;;;4.90;3.78;;;22.70;33.60;;;;;;5073521;28;20462;-69
2022/04/28 12:15:56;;;;;;;3.97;3.42;;;22.70;32.90;;;;;;5075741;28;20158;-69
2022/04/28 12:21:38;;;;;;;5.70;2.97;;;22.80;32.90;;;;;;5089304;28;20074;-70
2022/04/28 12:24:12;;;;;;;7.80;2.88;;;22.80;34.00;;;;;;5072659;28;20036;-69
2022/04/28 12:26:41;;;;;;;4.43;2.63;;;22.80;33.10;;;;;;5082809;28;20085;-69
2022/04/28 12:29:11;;;;;;;3.97;2.08;;;22.80;33.40;;;;;;5089514;28;20028;-69
2022/04/28 12:31:37;;;;;;;6.10;3.00;;;22.90;33.00;;;;;;5090603;28;20048;-69
2022/04/28 12:34:11;;;;;;;3.00;2.70;;;23.00;33.10;;;;;;5106588;28;20030;-69
2022/04/28 12:36:44;;;;;;;;;;;23.10;32.50;;;;;;5093097;28;20031;-69
2022/04/28 12:39:11;;;;;;;2.45;2.13;;;23.30;34.80;;;;;;5076615;28;20389;-69
2022/04/28 12:41:42;;;;;;;2.97;2.20;;;23.50;31.90;;;;;;5074095;28;20028;-69
2022/04/28 12:44:08;;;;;;;5.43;2.63;;;23.70;31.30;;;;;;5074023;28;20028;-70
2022/04/28 12:46:39;;;;;;;5.95;3.13;;;24.00;31.20;;;;;;5074009;28;20024;-69
2022/04/28 12:49:09;;;;;;;5.30;3.00;;;24.20;30.00;;;;;;5072550;28;20020;-70
2022/04/28 12:51:46;;;;;;;3.40;2.17;;;24.40;29.00;;;;;;5073379;28;20030;-70
2022/04/28 12:54:23;;;;;;;7.68;2.90;;;24.60;28.50;;;;;;5082836;28;20025;-69
2022/04/28 12:57:00;;;;;;;4.00;2.60;;;24.70;28.00;;;;;;5085053;28;20012;-69
2022/04/28 12:59:32;;;;;;;6.45;2.40;;;24.90;27.90;;;;;;5073660;28;20072;-70
2022/04/28 13:01:58;;;;;;;5.15;2.22;;;24.90;28.20;;;;;;5089338;28;20452;-70
2022/04/28 13:04:29;;;;;;;3.90;2.40;;;24.90;27.90;;;;;;5092455;28;20035;-70
2022/04/28 13:06:55;;;;;;;4.85;2.10;;;24.90;27.40;;;;;;5092992;28;20077;-69
2022/04/28 13:09:23;;;;;;;1.77;1.60;;;24.80;27.40;;;;;;5084695;28;20462;-70
2022/04/28 13:11:50;;;;;;;4.22;2.13;;;24.80;27.60;;;;;;5074963;28;20024;-70
2022/04/28 13:14:18;;;;;;;4.15;2.33;;;24.70;27.10;;;;;;5079547;28;20393;-71
2022/04/28 13:16:46;;;;;;;3.38;1.88;;;24.60;26.30;;;;;;5073462;28;20055;-71
2022/04/28 13:19:12;;;;;;;2.35;1.92;;;24.60;25.40;;;;;;5072329;28;20032;-71
2022/04/28 13:21:39;;;;;;;6.18;2.97;;;24.50;25.60;;;;;;5071770;28;20036;-70
2022/04/28 13:24:08;;;;;;;5.28;1.67;;;24.50;26.00;;;;;;5073322;28;20053;-71
2022/04/28 13:26:35;;;;;;;13.70;3.80;;;24.50;26.20;;;;;;5071977;28;20391;-70